Terminal Aerodrome Forecast
Issued by NWS

Home | Current Version | Previous Version | Text Only | Print | Product List | Glossary Off
Versions: 1 2 3 4 5 6 7 8 9 10 11 12 13 14 15 16 17 18 19 20

857
FTUS41 KGYX 190912 AAA
TAFRKD
TAF AMD
KRKD 190912Z 1909/2006 VRB03KT 1/2SM FG OVC002
      TEMPO 1909/1912 1/4SM FG VV001
     FM191500 19006KT P6SM SCT003 OVC008
     FM200000 22004KT 3SM BR BKN002 OVC015
      AMD LTD TO CLD VIS AND WIND=

USA.gov is the U.S. government's official web portal to all federal, state and local government web resources and services.